sensor_id;sensor_type;location;lat;lon;timestamp;P1;durP1;ratioP1;P2;durP2;ratioP2
29402;SDS011;16382;59.942;30.472;2023-04-25T00:01:46;46.78;;;21.13;;
29402;SDS011;16382;59.942;30.472;2023-04-25T00:04:13;39.10;;;21.73;;
29402;SDS011;16382;59.942;30.472;2023-04-25T00:06:41;49.70;;;22.25;;
29402;SDS011;16382;59.942;30.472;2023-04-25T00:09:10;54.17;;;23.08;;
29402;SDS011;16382;59.942;30.472;2023-04-25T00:11:37;46.65;;;21.13;;
29402;SDS011;16382;59.942;30.472;2023-04-25T00:14:05;44.63;;;21.83;;
29402;SDS011;16382;59.942;30.472;2023-04-25T00:16:33;39.33;;;24.55;;
29402;SDS011;16382;59.942;30.472;2023-04-25T00:19:00;46.78;;;21.10;;
29402;SDS011;16382;59.942;30.472;2023-04-25T00:21:29;58.15;;;22.67;;
29402;SDS011;16382;59.942;30.472;2023-04-25T00:23:58;37.08;;;25.10;;
29402;SDS011;16382;59.942;30.472;2023-04-25T00:26:27;40.95;;;24.67;;
29402;SDS011;16382;59.942;30.472;2023-04-25T00:28:56;40.88;;;25.52;;
29402;SDS011;16382;59.942;30.472;2023-04-25T00:31:24;45.30;;;26.20;;
29402;SDS011;16382;59.942;30.472;2023-04-25T00:33:51;40.60;;;27.15;;
29402;SDS011;16382;59.942;30.472;2023-04-25T00:36:19;32.70;;;25.73;;
29402;SDS011;16382;59.942;30.472;2023-04-25T00:38:47;37.13;;;24.80;;
29402;SDS011;16382;59.942;30.472;2023-04-25T00:41:14;42.72;;;26.48;;
29402;SDS011;16382;59.942;30.472;2023-04-25T00:43:43;33.22;;;22.95;;
29402;SDS011;16382;59.942;30.472;2023-04-25T00:46:12;35.35;;;24.42;;
29402;SDS011;16382;59.942;30.472;2023-04-25T00:48:40;29.92;;;21.88;;
29402;SDS011;16382;59.942;30.472;2023-04-25T00:51:07;37.30;;;21.85;;
29402;SDS011;16382;59.942;30.472;2023-04-25T00:53:39;35.80;;;21.77;;
29402;SDS011;16382;59.942;30.472;2023-04-25T00:56:07;37.83;;;22.73;;
29402;SDS011;16382;59.942;30.472;2023-04-25T00:58:35;34.20;;;21.70;;
29402;SDS011;16382;59.942;30.472;2023-04-25T01:01:05;33.03;;;22.73;;
29402;SDS011;16382;59.942;30.472;2023-04-25T01:03:33;36.30;;;23.45;;
29402;SDS011;16382;59.942;30.472;2023-04-25T01:06:06;40.08;;;22.17;;
29402;SDS011;16382;59.942;30.472;2023-04-25T01:08:37;39.30;;;23.05;;
29402;SDS011;16382;59.942;30.472;2023-04-25T01:11:05;38.92;;;23.10;;
29402;SDS011;16382;59.942;30.472;2023-04-25T01:13:33;43.72;;;21.85;;
29402;SDS011;16382;59.942;30.472;2023-04-25T01:16:02;29.17;;;19.65;;
29402;SDS011;16382;59.942;30.472;2023-04-25T01:18:34;35.03;;;20.63;;
29402;SDS011;16382;59.942;30.472;2023-04-25T01:21:08;29.27;;;19.52;;
29402;SDS011;16382;59.942;30.472;2023-04-25T01:23:38;36.90;;;18.20;;
29402;SDS011;16382;59.942;30.472;2023-04-25T01:26:08;30.00;;;18.27;;
29402;SDS011;16382;59.942;30.472;2023-04-25T01:28:37;28.15;;;19.30;;
29402;SDS011;16382;59.942;30.472;2023-04-25T01:31:07;29.77;;;18.25;;
29402;SDS011;16382;59.942;30.472;2023-04-25T01:33:36;28.02;;;17.92;;
29402;SDS011;16382;59.942;30.472;2023-04-25T01:36:04;26.83;;;18.45;;
29402;SDS011;16382;59.942;30.472;2023-04-25T01:38:36;27.65;;;16.88;;
29402;SDS011;16382;59.942;30.472;2023-04-25T01:41:04;26.23;;;16.10;;
29402;SDS011;16382;59.942;30.472;2023-04-25T01:43:32;24.35;;;15.88;;
29402;SDS011;16382;59.942;30.472;2023-04-25T01:46:01;27.60;;;17.27;;
29402;SDS011;16382;59.942;30.472;2023-04-25T01:48:28;27.50;;;17.27;;
29402;SDS011;16382;59.942;30.472;2023-04-25T01:50:56;27.80;;;16.27;;
29402;SDS011;16382;59.942;30.472;2023-04-25T01:53:25;33.60;;;17.77;;
29402;SDS011;16382;59.942;30.472;2023-04-25T01:55:53;25.52;;;15.82;;
29402;SDS011;16382;59.942;30.472;2023-04-25T01:58:23;28.98;;;16.58;;
29402;SDS011;16382;59.942;30.472;2023-04-25T02:01:09;24.80;;;15.18;;
29402;SDS011;16382;59.942;30.472;2023-04-25T02:03:43;24.10;;;14.85;;
29402;SDS011;16382;59.942;30.472;2023-04-25T02:06:19;25.30;;;14.40;;
29402;SDS011;16382;59.942;30.472;2023-04-25T02:08:49;22.30;;;15.95;;
29402;SDS011;16382;59.942;30.472;2023-04-25T02:11:17;23.08;;;14.38;;
29402;SDS011;16382;59.942;30.472;2023-04-25T02:13:53;27.30;;;14.95;;
29402;SDS011;16382;59.942;30.472;2023-04-25T02:16:36;22.70;;;12.93;;
29402;SDS011;16382;59.942;30.472;2023-04-25T02:19:06;16.63;;;12.02;;
29402;SDS011;16382;59.942;30.472;2023-04-25T02:21:34;19.73;;;12.77;;
29402;SDS011;16382;59.942;30.472;2023-04-25T02:24:03;17.27;;;11.73;;
29402;SDS011;16382;59.942;30.472;2023-04-25T02:26:33;19.15;;;12.35;;
29402;SDS011;16382;59.942;30.472;2023-04-25T02:29:00;18.45;;;11.70;;
29402;SDS011;16382;59.942;30.472;2023-04-25T02:31:28;18.75;;;12.05;;
29402;SDS011;16382;59.942;30.472;2023-04-25T02:33:57;17.67;;;11.85;;
29402;SDS011;16382;59.942;30.472;2023-04-25T02:36:26;21.30;;;12.43;;
29402;SDS011;16382;59.942;30.472;2023-04-25T02:38:55;22.48;;;12.27;;
29402;SDS011;16382;59.942;30.472;2023-04-25T02:41:24;25.98;;;11.48;;
29402;SDS011;16382;59.942;30.472;2023-04-25T02:43:54;14.23;;;11.32;;
29402;SDS011;16382;59.942;30.472;2023-04-25T02:46:22;24.00;;;12.48;;
29402;SDS011;16382;59.942;30.472;2023-04-25T02:48:52;20.95;;;11.60;;
29402;SDS011;16382;59.942;30.472;2023-04-25T02:51:19;20.95;;;10.60;;
29402;SDS011;16382;59.942;30.472;2023-04-25T02:53:47;23.20;;;9.50;;
29402;SDS011;16382;59.942;30.472;2023-04-25T02:56:14;23.33;;;10.40;;
29402;SDS011;16382;59.942;30.472;2023-04-25T02:58:43;13.00;;;9.68;;
29402;SDS011;16382;59.942;30.472;2023-04-25T03:01:11;20.98;;;9.30;;
29402;SDS011;16382;59.942;30.472;2023-04-25T03:03:38;14.73;;;9.38;;
29402;SDS011;16382;59.942;30.472;2023-04-25T03:06:06;17.85;;;9.60;;
29402;SDS011;16382;59.942;30.472;2023-04-25T03:08:34;17.52;;;9.95;;
29402;SDS011;16382;59.942;30.472;2023-04-25T03:11:01;16.23;;;9.02;;
29402;SDS011;16382;59.942;30.472;2023-04-25T03:13:29;19.40;;;8.68;;
29402;SDS011;16382;59.942;30.472;2023-04-25T03:16:00;17.35;;;9.00;;
29402;SDS011;16382;59.942;30.472;2023-04-25T03:18:29;15.73;;;8.00;;
29402;SDS011;16382;59.942;30.472;2023-04-25T03:20:56;13.27;;;7.72;;
29402;SDS011;16382;59.942;30.472;2023-04-25T03:23:24;11.00;;;7.07;;
29402;SDS011;16382;59.942;30.472;2023-04-25T03:25:52;12.82;;;8.02;;
29402;SDS011;16382;59.942;30.472;2023-04-25T03:28:19;12.30;;;7.15;;
29402;SDS011;16382;59.942;30.472;2023-04-25T03:30:47;14.85;;;7.53;;
29402;SDS011;16382;59.942;30.472;2023-04-25T03:33:16;9.85;;;7.13;;
29402;SDS011;16382;59.942;30.472;2023-04-25T03:35:44;15.65;;;7.07;;
29402;SDS011;16382;59.942;30.472;2023-04-25T03:38:13;11.93;;;6.68;;
29402;SDS011;16382;59.942;30.472;2023-04-25T03:40:41;18.02;;;6.05;;
29402;SDS011;16382;59.942;30.472;2023-04-25T03:43:31;14.15;;;6.85;;
29402;SDS011;16382;59.942;30.472;2023-04-25T03:46:04;13.15;;;6.43;;
29402;SDS011;16382;59.942;30.472;2023-04-25T03:48:33;14.30;;;6.68;;
29402;SDS011;16382;59.942;30.472;2023-04-25T03:51:00;17.27;;;6.80;;
29402;SDS011;16382;59.942;30.472;2023-04-25T03:53:31;14.85;;;7.55;;
29402;SDS011;16382;59.942;30.472;2023-04-25T03:56:27;16.38;;;8.40;;
29402;SDS011;16382;59.942;30.472;2023-04-25T03:59:01;15.63;;;6.72;;
29402;SDS011;16382;59.942;30.472;2023-04-25T04:01:30;15.07;;;5.90;;
29402;SDS011;16382;59.942;30.472;2023-04-25T04:03:59;15.48;;;6.60;;
29402;SDS011;16382;59.942;30.472;2023-04-25T04:06:28;23.20;;;7.18;;
29402;SDS011;16382;59.942;30.472;2023-04-25T04:09:03;20.45;;;6.95;;
29402;SDS011;16382;59.942;30.472;2023-04-25T04:11:37;17.20;;;6.85;;
29402;SDS011;16382;59.942;30.472;2023-04-25T04:14:05;14.85;;;6.13;;
29402;SDS011;16382;59.942;30.472;2023-04-25T04:16:33;19.13;;;6.28;;
29402;SDS011;16382;59.942;30.472;2023-04-25T04:19:02;15.32;;;6.65;;
29402;SDS011;16382;59.942;30.472;2023-04-25T04:21:31;13.68;;;6.63;;
29402;SDS011;16382;59.942;30.472;2023-04-25T04:24:00;16.73;;;6.75;;
29402;SDS011;16382;59.942;30.472;2023-04-25T04:26:42;18.17;;;5.80;;
29402;SDS011;16382;59.942;30.472;2023-04-25T04:29:32;15.85;;;6.22;;
29402;SDS011;16382;59.942;30.472;2023-04-25T04:32:23;22.80;;;5.85;;
29402;SDS011;16382;59.942;30.472;2023-04-25T04:35:00;15.65;;;6.78;;
29402;SDS011;16382;59.942;30.472;2023-04-25T04:37:29;15.30;;;6.20;;
29402;SDS011;16382;59.942;30.472;2023-04-25T04:40:04;16.73;;;6.53;;
29402;SDS011;16382;59.942;30.472;2023-04-25T04:42:45;20.60;;;7.00;;
29402;SDS011;16382;59.942;30.472;2023-04-25T04:45:45;15.50;;;6.47;;
29402;SDS011;16382;59.942;30.472;2023-04-25T04:48:33;15.70;;;5.85;;
29402;SDS011;16382;59.942;30.472;2023-04-25T04:51:23;10.38;;;6.07;;
29402;SDS011;16382;59.942;30.472;2023-04-25T04:53:53;22.07;;;6.43;;
29402;SDS011;16382;59.942;30.472;2023-04-25T04:56:48;19.75;;;6.07;;
29402;SDS011;16382;59.942;30.472;2023-04-25T04:59:41;16.77;;;6.53;;
29402;SDS011;16382;59.942;30.472;2023-04-25T05:02:44;18.95;;;5.85;;
29402;SDS011;16382;59.942;30.472;2023-04-25T05:05:43;13.57;;;5.25;;
29402;SDS011;16382;59.942;30.472;2023-04-25T05:08:28;13.45;;;5.47;;
29402;SDS011;16382;59.942;30.472;2023-04-25T05:11:23;16.10;;;6.03;;
29402;SDS011;16382;59.942;30.472;2023-04-25T05:14:24;24.45;;;6.55;;
29402;SDS011;16382;59.942;30.472;2023-04-25T05:17:05;13.35;;;5.55;;
29402;SDS011;16382;59.942;30.472;2023-04-25T05:19:50;16.05;;;6.20;;
29402;SDS011;16382;59.942;30.472;2023-04-25T05:22:44;18.02;;;5.32;;
29402;SDS011;16382;59.942;30.472;2023-04-25T05:25:19;19.38;;;4.97;;
29402;SDS011;16382;59.942;30.472;2023-04-25T05:28:05;16.75;;;5.70;;
29402;SDS011;16382;59.942;30.472;2023-04-25T05:30:56;18.15;;;5.53;;
29402;SDS011;16382;59.942;30.472;2023-04-25T05:33:41;17.98;;;5.22;;
29402;SDS011;16382;59.942;30.472;2023-04-25T05:36:09;21.38;;;6.57;;
29402;SDS011;16382;59.942;30.472;2023-04-25T05:38:38;22.48;;;5.97;;
29402;SDS011;16382;59.942;30.472;2023-04-25T05:41:46;12.23;;;4.70;;
29402;SDS011;16382;59.942;30.472;2023-04-25T05:44:43;14.50;;;4.85;;
29402;SDS011;16382;59.942;30.472;2023-04-25T05:47:35;12.30;;;5.60;;
29402;SDS011;16382;59.942;30.472;2023-04-25T05:50:09;11.52;;;5.35;;
29402;SDS011;16382;59.942;30.472;2023-04-25T05:52:49;10.00;;;4.15;;
29402;SDS011;16382;59.942;30.472;2023-04-25T05:55:29;9.50;;;4.78;;
29402;SDS011;16382;59.942;30.472;2023-04-25T05:58:26;16.17;;;4.65;;
29402;SDS011;16382;59.942;30.472;2023-04-25T06:00:54;8.55;;;4.72;;
29402;SDS011;16382;59.942;30.472;2023-04-25T06:03:22;14.77;;;6.40;;
29402;SDS011;16382;59.942;30.472;2023-04-25T06:05:50;10.65;;;4.57;;
29402;SDS011;16382;59.942;30.472;2023-04-25T06:08:19;18.17;;;4.68;;
29402;SDS011;16382;59.942;30.472;2023-04-25T06:10:47;7.82;;;4.45;;
29402;SDS011;16382;59.942;30.472;2023-04-25T06:13:18;11.38;;;5.10;;
29402;SDS011;16382;59.942;30.472;2023-04-25T06:15:47;14.00;;;7.72;;
29402;SDS011;16382;59.942;30.472;2023-04-25T06:18:16;13.50;;;4.72;;
29402;SDS011;16382;59.942;30.472;2023-04-25T06:20:43;12.82;;;6.20;;
29402;SDS011;16382;59.942;30.472;2023-04-25T06:23:11;15.48;;;4.97;;
29402;SDS011;16382;59.942;30.472;2023-04-25T06:25:47;11.82;;;4.28;;
29402;SDS011;16382;59.942;30.472;2023-04-25T06:28:15;17.85;;;5.38;;
29402;SDS011;16382;59.942;30.472;2023-04-25T06:30:43;15.38;;;4.93;;
29402;SDS011;16382;59.942;30.472;2023-04-25T06:33:17;13.75;;;5.15;;
29402;SDS011;16382;59.942;30.472;2023-04-25T06:35:46;9.73;;;4.85;;
29402;SDS011;16382;59.942;30.472;2023-04-25T06:38:17;12.00;;;4.60;;
29402;SDS011;16382;59.942;30.472;2023-04-25T06:40:49;13.23;;;5.40;;
29402;SDS011;16382;59.942;30.472;2023-04-25T06:43:18;16.25;;;5.28;;
29402;SDS011;16382;59.942;30.472;2023-04-25T06:46:03;14.35;;;5.35;;
29402;SDS011;16382;59.942;30.472;2023-04-25T06:48:39;13.75;;;4.68;;
29402;SDS011;16382;59.942;30.472;2023-04-25T06:51:06;18.55;;;5.07;;
29402;SDS011;16382;59.942;30.472;2023-04-25T06:53:35;13.00;;;5.32;;
29402;SDS011;16382;59.942;30.472;2023-04-25T06:56:06;15.05;;;5.05;;
29402;SDS011;16382;59.942;30.472;2023-04-25T06:58:54;16.17;;;5.20;;
29402;SDS011;16382;59.942;30.472;2023-04-25T07:01:34;9.02;;;4.32;;
29402;SDS011;16382;59.942;30.472;2023-04-25T07:04:32;16.90;;;4.20;;
29402;SDS011;16382;59.942;30.472;2023-04-25T07:07:01;7.55;;;3.80;;
29402;SDS011;16382;59.942;30.472;2023-04-25T07:09:51;14.13;;;4.70;;
29402;SDS011;16382;59.942;30.472;2023-04-25T07:12:20;12.75;;;4.15;;
29402;SDS011;16382;59.942;30.472;2023-04-25T07:14:48;9.93;;;3.97;;
29402;SDS011;16382;59.942;30.472;2023-04-25T07:17:18;11.55;;;3.90;;
29402;SDS011;16382;59.942;30.472;2023-04-25T07:19:49;13.75;;;4.13;;
29402;SDS011;16382;59.942;30.472;2023-04-25T07:22:19;12.15;;;3.80;;
29402;SDS011;16382;59.942;30.472;2023-04-25T07:24:48;13.05;;;4.18;;
29402;SDS011;16382;59.942;30.472;2023-04-25T07:27:19;15.13;;;4.28;;
29402;SDS011;16382;59.942;30.472;2023-04-25T07:30:10;7.63;;;5.10;;
29402;SDS011;16382;59.942;30.472;2023-04-25T07:32:38;10.02;;;6.38;;
29402;SDS011;16382;59.942;30.472;2023-04-25T07:35:08;18.65;;;5.63;;
29402;SDS011;16382;59.942;30.472;2023-04-25T07:37:36;17.35;;;5.70;;
29402;SDS011;16382;59.942;30.472;2023-04-25T07:40:13;13.00;;;4.93;;
29402;SDS011;16382;59.942;30.472;2023-04-25T07:42:46;11.32;;;5.10;;
29402;SDS011;16382;59.942;30.472;2023-04-25T07:45:21;11.57;;;3.38;;
29402;SDS011;16382;59.942;30.472;2023-04-25T07:47:49;12.48;;;4.32;;
29402;SDS011;16382;59.942;30.472;2023-04-25T07:50:18;10.80;;;3.80;;
29402;SDS011;16382;59.942;30.472;2023-04-25T07:52:46;7.05;;;3.15;;
29402;SDS011;16382;59.942;30.472;2023-04-25T07:55:23;8.60;;;3.47;;
29402;SDS011;16382;59.942;30.472;2023-04-25T07:58:02;11.80;;;3.33;;
29402;SDS011;16382;59.942;30.472;2023-04-25T08:00:34;10.05;;;3.33;;
29402;SDS011;16382;59.942;30.472;2023-04-25T08:03:20;7.43;;;3.50;;
29402;SDS011;16382;59.942;30.472;2023-04-25T08:05:50;7.43;;;3.08;;
29402;SDS011;16382;59.942;30.472;2023-04-25T08:08:18;7.18;;;2.83;;
29402;SDS011;16382;59.942;30.472;2023-04-25T08:10:46;7.38;;;3.00;;
29402;SDS011;16382;59.942;30.472;2023-04-25T08:13:15;8.90;;;2.78;;
29402;SDS011;16382;59.942;30.472;2023-04-25T08:15:44;6.15;;;2.67;;
29402;SDS011;16382;59.942;30.472;2023-04-25T08:18:12;4.47;;;2.50;;
29402;SDS011;16382;59.942;30.472;2023-04-25T08:20:41;11.05;;;2.53;;
29402;SDS011;16382;59.942;30.472;2023-04-25T08:23:11;8.98;;;2.60;;
29402;SDS011;16382;59.942;30.472;2023-04-25T08:25:51;7.28;;;2.40;;
29402;SDS011;16382;59.942;30.472;2023-04-25T08:28:23;3.83;;;2.70;;
29402;SDS011;16382;59.942;30.472;2023-04-25T08:30:50;7.65;;;3.00;;
29402;SDS011;16382;59.942;30.472;2023-04-25T08:33:19;9.30;;;2.75;;
29402;SDS011;16382;59.942;30.472;2023-04-25T08:36:01;12.70;;;3.00;;
29402;SDS011;16382;59.942;30.472;2023-04-25T08:38:32;3.47;;;2.25;;
29402;SDS011;16382;59.942;30.472;2023-04-25T08:41:01;14.05;;;2.42;;
29402;SDS011;16382;59.942;30.472;2023-04-25T08:43:31;5.85;;;1.95;;
29402;SDS011;16382;59.942;30.472;2023-04-25T08:45:59;5.38;;;2.22;;
29402;SDS011;16382;59.942;30.472;2023-04-25T08:48:49;5.22;;;2.13;;
29402;SDS011;16382;59.942;30.472;2023-04-25T08:51:21;5.45;;;2.17;;
29402;SDS011;16382;59.942;30.472;2023-04-25T08:53:52;5.95;;;2.20;;
29402;SDS011;16382;59.942;30.472;2023-04-25T08:56:20;8.20;;;2.58;;
29402;SDS011;16382;59.942;30.472;2023-04-25T08:58:48;8.77;;;2.22;;
29402;SDS011;16382;59.942;30.472;2023-04-25T09:01:16;4.30;;;2.70;;
29402;SDS011;16382;59.942;30.472;2023-04-25T09:03:50;6.20;;;2.70;;
29402;SDS011;16382;59.942;30.472;2023-04-25T09:06:18;4.40;;;2.03;;
29402;SDS011;16382;59.942;30.472;2023-04-25T09:08:49;3.55;;;2.30;;
29402;SDS011;16382;59.942;30.472;2023-04-25T09:11:19;3.90;;;2.33;;
29402;SDS011;16382;59.942;30.472;2023-04-25T09:13:47;4.15;;;2.40;;
29402;SDS011;16382;59.942;30.472;2023-04-25T09:17:03;16.85;;;2.33;;
29402;SDS011;16382;59.942;30.472;2023-04-25T09:19:41;9.65;;;2.22;;
29402;SDS011;16382;59.942;30.472;2023-04-25T09:22:32;10.30;;;2.50;;
29402;SDS011;16382;59.942;30.472;2023-04-25T09:25:03;6.03;;;2.28;;
29402;SDS011;16382;59.942;30.472;2023-04-25T09:27:36;7.80;;;2.70;;
29402;SDS011;16382;59.942;30.472;2023-04-25T09:30:28;3.42;;;2.28;;
29402;SDS011;16382;59.942;30.472;2023-04-25T09:33:06;2.25;;;2.05;;
29402;SDS011;16382;59.942;30.472;2023-04-25T09:35:36;4.35;;;2.33;;
29402;SDS011;16382;59.942;30.472;2023-04-25T09:38:08;9.93;;;7.32;;
29402;SDS011;16382;59.942;30.472;2023-04-25T09:40:55;11.07;;;2.50;;
29402;SDS011;16382;59.942;30.472;2023-04-25T09:43:34;5.50;;;2.30;;
29402;SDS011;16382;59.942;30.472;2023-04-25T09:46:04;7.15;;;2.63;;
29402;SDS011;16382;59.942;30.472;2023-04-25T09:48:48;4.60;;;2.30;;
29402;SDS011;16382;59.942;30.472;2023-04-25T09:51:30;7.20;;;2.42;;
29402;SDS011;16382;59.942;30.472;2023-04-25T09:53:59;3.67;;;2.40;;
29402;SDS011;16382;59.942;30.472;2023-04-25T09:56:35;7.28;;;2.25;;
29402;SDS011;16382;59.942;30.472;2023-04-25T09:59:06;10.13;;;2.30;;
29402;SDS011;16382;59.942;30.472;2023-04-25T10:01:36;10.52;;;2.33;;
29402;SDS011;16382;59.942;30.472;2023-04-25T10:04:22;4.90;;;2.10;;
29402;SDS011;16382;59.942;30.472;2023-04-25T10:07:10;7.07;;;2.28;;
29402;SDS011;16382;59.942;30.472;2023-04-25T10:09:43;5.13;;;2.45;;
29402;SDS011;16382;59.942;30.472;2023-04-25T10:12:17;4.20;;;2.55;;
29402;SDS011;16382;59.942;30.472;2023-04-25T10:14:46;3.95;;;2.00;;
29402;SDS011;16382;59.942;30.472;2023-04-25T10:17:17;5.88;;;2.00;;
29402;SDS011;16382;59.942;30.472;2023-04-25T10:19:49;5.82;;;2.22;;
29402;SDS011;16382;59.942;30.472;2023-04-25T10:22:20;5.32;;;2.28;;
29402;SDS011;16382;59.942;30.472;2023-04-25T10:25:00;7.70;;;2.63;;
29402;SDS011;16382;59.942;30.472;2023-04-25T10:27:33;4.97;;;2.47;;
29402;SDS011;16382;59.942;30.472;2023-04-25T10:30:01;2.90;;;2.43;;
29402;SDS011;16382;59.942;30.472;2023-04-25T10:32:32;6.97;;;2.17;;
29402;SDS011;16382;59.942;30.472;2023-04-25T10:35:12;5.65;;;2.33;;
29402;SDS011;16382;59.942;30.472;2023-04-25T10:37:59;5.13;;;2.40;;
29402;SDS011;16382;59.942;30.472;2023-04-25T10:40:30;8.13;;;2.20;;
29402;SDS011;16382;59.942;30.472;2023-04-25T10:48:53;7.55;;;2.30;;
29402;SDS011;16382;59.942;30.472;2023-04-25T10:51:22;3.78;;;2.65;;
29402;SDS011;16382;59.942;30.472;2023-04-25T10:53:56;11.50;;;2.85;;
29402;SDS011;16382;59.942;30.472;2023-04-25T10:56:27;6.78;;;2.90;;
29402;SDS011;16382;59.942;30.472;2023-04-25T10:59:09;8.82;;;2.50;;
29402;SDS011;16382;59.942;30.472;2023-04-25T11:01:42;2.78;;;2.33;;
29402;SDS011;16382;59.942;30.472;2023-04-25T11:04:20;5.47;;;3.03;;
29402;SDS011;16382;59.942;30.472;2023-04-25T11:06:58;5.05;;;2.00;;
29402;SDS011;16382;59.942;30.472;2023-04-25T11:09:40;6.30;;;2.17;;
29402;SDS011;16382;59.942;30.472;2023-04-25T11:12:15;6.28;;;2.78;;
29402;SDS011;16382;59.942;30.472;2023-04-25T11:14:47;5.88;;;2.50;;
29402;SDS011;16382;59.942;30.472;2023-04-25T11:17:16;5.80;;;2.20;;
29402;SDS011;16382;59.942;30.472;2023-04-25T11:19:44;5.57;;;2.20;;
29402;SDS011;16382;59.942;30.472;2023-04-25T11:22:15;7.25;;;2.70;;
29402;SDS011;16382;59.942;30.472;2023-04-25T11:24:47;3.42;;;2.65;;
29402;SDS011;16382;59.942;30.472;2023-04-25T11:27:16;3.90;;;2.60;;
29402;SDS011;16382;59.942;30.472;2023-04-25T11:29:49;5.30;;;2.08;;
29402;SDS011;16382;59.942;30.472;2023-04-25T11:32:32;3.35;;;2.33;;
29402;SDS011;16382;59.942;30.472;2023-04-25T11:35:01;7.68;;;3.63;;
29402;SDS011;16382;59.942;30.472;2023-04-25T11:37:29;6.82;;;2.40;;
29402;SDS011;16382;59.942;30.472;2023-04-25T11:39:57;5.32;;;2.45;;
29402;SDS011;16382;59.942;30.472;2023-04-25T11:42:24;5.07;;;2.40;;
29402;SDS011;16382;59.942;30.472;2023-04-25T11:44:55;4.60;;;2.20;;
29402;SDS011;16382;59.942;30.472;2023-04-25T11:47:32;7.40;;;2.30;;
29402;SDS011;16382;59.942;30.472;2023-04-25T11:50:04;4.78;;;2.30;;
29402;SDS011;16382;59.942;30.472;2023-04-25T11:52:36;3.58;;;2.08;;
29402;SDS011;16382;59.942;30.472;2023-04-25T11:55:06;2.97;;;2.03;;
29402;SDS011;16382;59.942;30.472;2023-04-25T11:57:37;3.42;;;2.47;;
29402;SDS011;16382;59.942;30.472;2023-04-25T12:00:09;3.92;;;2.20;;
29402;SDS011;16382;59.942;30.472;2023-04-25T12:02:42;8.52;;;2.33;;
29402;SDS011;16382;59.942;30.472;2023-04-25T12:05:12;2.72;;;2.13;;
29402;SDS011;16382;59.942;30.472;2023-04-25T12:07:42;2.55;;;2.13;;
29402;SDS011;16382;59.942;30.472;2023-04-25T12:10:11;2.70;;;2.33;;
29402;SDS011;16382;59.942;30.472;2023-04-25T12:12:44;2.47;;;2.25;;
29402;SDS011;16382;59.942;30.472;2023-04-25T12:15:15;2.88;;;2.20;;
29402;SDS011;16382;59.942;30.472;2023-04-25T12:17:46;10.32;;;2.97;;
29402;SDS011;16382;59.942;30.472;2023-04-25T12:20:28;5.43;;;2.53;;
29402;SDS011;16382;59.942;30.472;2023-04-25T12:22:58;6.43;;;2.70;;
29402;SDS011;16382;59.942;30.472;2023-04-25T12:25:35;6.60;;;2.58;;
29402;SDS011;16382;59.942;30.472;2023-04-25T12:28:11;5.40;;;3.28;;
29402;SDS011;16382;59.942;30.472;2023-04-25T12:30:57;10.73;;;2.60;;
29402;SDS011;16382;59.942;30.472;2023-04-25T12:33:29;5.95;;;2.40;;
29402;SDS011;16382;59.942;30.472;2023-04-25T12:36:03;6.57;;;2.97;;
29402;SDS011;16382;59.942;30.472;2023-04-25T12:38:35;6.57;;;3.17;;
29402;SDS011;16382;59.942;30.472;2023-04-25T12:41:05;6.75;;;3.10;;
29402;SDS011;16382;59.942;30.472;2023-04-25T12:43:33;10.55;;;2.58;;
29402;SDS011;16382;59.942;30.472;2023-04-25T12:46:03;7.55;;;2.33;;
29402;SDS011;16382;59.942;30.472;2023-04-25T12:48:31;4.38;;;2.78;;
29402;SDS011;16382;59.942;30.472;2023-04-25T12:50:58;3.35;;;2.50;;
29402;SDS011;16382;59.942;30.472;2023-04-25T12:53:29;4.50;;;2.80;;
29402;SDS011;16382;59.942;30.472;2023-04-25T12:55:56;3.58;;;3.10;;
29402;SDS011;16382;59.942;30.472;2023-04-25T12:58:24;6.95;;;2.63;;
29402;SDS011;16382;59.942;30.472;2023-04-25T13:00:52;6.80;;;2.70;;
29402;SDS011;16382;59.942;30.472;2023-04-25T13:03:20;5.03;;;2.72;;
29402;SDS011;16382;59.942;30.472;2023-04-25T13:05:48;4.95;;;2.60;;
29402;SDS011;16382;59.942;30.472;2023-04-25T13:08:18;8.23;;;2.97;;
29402;SDS011;16382;59.942;30.472;2023-04-25T13:10:47;6.82;;;3.40;;
29402;SDS011;16382;59.942;30.472;2023-04-25T13:13:14;5.88;;;2.60;;
29402;SDS011;16382;59.942;30.472;2023-04-25T13:15:42;7.43;;;2.92;;
29402;SDS011;16382;59.942;30.472;2023-04-25T13:18:14;9.52;;;2.40;;
29402;SDS011;16382;59.942;30.472;2023-04-25T13:20:43;9.00;;;3.10;;
29402;SDS011;16382;59.942;30.472;2023-04-25T13:23:17;7.05;;;2.75;;
29402;SDS011;16382;59.942;30.472;2023-04-25T13:25:45;7.57;;;2.53;;
29402;SDS011;16382;59.942;30.472;2023-04-25T13:28:13;6.90;;;2.60;;
29402;SDS011;16382;59.942;30.472;2023-04-25T13:30:41;6.93;;;2.70;;
29402;SDS011;16382;59.942;30.472;2023-04-25T13:33:09;3.97;;;2.05;;
29402;SDS011;16382;59.942;30.472;2023-04-25T13:35:38;4.70;;;2.90;;
29402;SDS011;16382;59.942;30.472;2023-04-25T13:38:10;3.67;;;2.80;;
29402;SDS011;16382;59.942;30.472;2023-04-25T13:40:38;7.90;;;2.90;;
29402;SDS011;16382;59.942;30.472;2023-04-25T13:43:07;2.88;;;2.67;;
29402;SDS011;16382;59.942;30.472;2023-04-25T13:45:37;13.07;;;3.65;;
29402;SDS011;16382;59.942;30.472;2023-04-25T13:48:10;5.07;;;3.35;;
29402;SDS011;16382;59.942;30.472;2023-04-25T13:50:38;11.27;;;2.97;;
29402;SDS011;16382;59.942;30.472;2023-04-25T13:53:06;7.53;;;2.78;;
29402;SDS011;16382;59.942;30.472;2023-04-25T13:55:42;9.98;;;3.03;;
29402;SDS011;16382;59.942;30.472;2023-04-25T13:58:09;9.93;;;3.30;;
29402;SDS011;16382;59.942;30.472;2023-04-25T14:00:42;4.28;;;2.70;;
29402;SDS011;16382;59.942;30.472;2023-04-25T14:03:14;5.85;;;3.05;;
29402;SDS011;16382;59.942;30.472;2023-04-25T14:05:43;10.15;;;2.88;;
29402;SDS011;16382;59.942;30.472;2023-04-25T14:08:11;7.50;;;2.72;;
29402;SDS011;16382;59.942;30.472;2023-04-25T14:10:38;5.72;;;2.72;;
29402;SDS011;16382;59.942;30.472;2023-04-25T14:13:07;9.38;;;3.50;;
29402;SDS011;16382;59.942;30.472;2023-04-25T14:15:35;6.00;;;3.17;;
29402;SDS011;16382;59.942;30.472;2023-04-25T14:18:02;5.30;;;2.60;;
29402;SDS011;16382;59.942;30.472;2023-04-25T14:20:31;10.98;;;2.75;;
29402;SDS011;16382;59.942;30.472;2023-04-25T14:22:58;5.18;;;2.92;;
29402;SDS011;16382;59.942;30.472;2023-04-25T14:25:27;3.88;;;2.75;;
29402;SDS011;16382;59.942;30.472;2023-04-25T14:27:56;15.40;;;3.58;;
29402;SDS011;16382;59.942;30.472;2023-04-25T14:30:28;6.68;;;3.08;;
29402;SDS011;16382;59.942;30.472;2023-04-25T14:32:56;5.38;;;2.10;;
29402;SDS011;16382;59.942;30.472;2023-04-25T14:35:24;7.45;;;3.53;;
29402;SDS011;16382;59.942;30.472;2023-04-25T14:37:53;6.47;;;2.60;;
29402;SDS011;16382;59.942;30.472;2023-04-25T14:40:20;7.53;;;3.35;;
29402;SDS011;16382;59.942;30.472;2023-04-25T14:42:48;9.20;;;3.30;;
29402;SDS011;16382;59.942;30.472;2023-04-25T14:45:16;12.20;;;3.65;;
29402;SDS011;16382;59.942;30.472;2023-04-25T14:47:45;8.63;;;3.50;;
29402;SDS011;16382;59.942;30.472;2023-04-25T14:50:13;10.25;;;3.63;;
29402;SDS011;16382;59.942;30.472;2023-04-25T14:52:40;10.27;;;3.90;;
29402;SDS011;16382;59.942;30.472;2023-04-25T14:55:08;7.53;;;3.65;;
29402;SDS011;16382;59.942;30.472;2023-04-25T14:57:35;8.30;;;3.35;;
29402;SDS011;16382;59.942;30.472;2023-04-25T15:00:05;8.85;;;3.20;;
29402;SDS011;16382;59.942;30.472;2023-04-25T15:02:35;8.60;;;3.50;;